Time;durP1;ratioP1;P1;durP2;ratioP2;P2;SDS_P1;SDS_P2;PMS_P1;PMS_P2;Temp;Humidity;BMP_temperature;BMP_pressure;BME280_temperature;BME280_humidity;BME280_pressure;Samples;Min_cycle;Max_cycle;Signal;HPM_P1;HPM_P2
2022/02/06 00:00:54;;;;;;;15.43;8.10;;;28.30;81.30;;;;;;5084106;28;20040;-54
2022/02/06 00:03:21;;;;;;;13.60;6.82;;;28.20;81.20;;;;;;5084118;28;20316;-58
2022/02/06 00:05:49;;;;;;;18.92;7.38;;;28.30;81.00;;;;;;5084238;28;20027;-56
2022/02/06 00:08:16;;;;;;;10.70;6.50;;;28.20;80.60;;;;;;5084310;28;20291;-53
2022/02/06 00:10:44;;;;;;;12.73;7.00;;;28.20;80.70;;;;;;5084429;28;20053;-56
2022/02/06 00:13:10;;;;;;;20.02;6.68;;;28.20;80.70;;;;;;5084182;28;20036;-47
2022/02/06 00:15:37;;;;;;;21.85;6.88;;;28.20;80.20;;;;;;5083896;28;20021;-52
2022/02/06 00:18:04;;;;;;;17.70;6.45;;;28.20;80.80;;;;;;5082520;28;20307;-52
2022/02/06 00:20:35;;;;;;;134.23;122.13;;;28.20;80.00;;;;;;5083792;28;20024;-53
2022/02/06 00:23:06;;;;;;;60.13;54.65;;;28.20;80.30;;;;;;5084158;28;20207;-53
2022/02/06 00:25:47;;;;;;;25.40;22.50;;;28.20;80.20;;;;;;5083837;28;20023;-54
2022/02/06 00:31:10;;;;;;;24.50;14.18;;;28.20;80.00;;;;;;5085645;28;20062;-55
2022/02/06 00:33:47;;;;;;;16.43;11.23;;;28.10;79.90;;;;;;5082550;28;20040;-53
2022/02/06 00:39:05;;;;;;;24.13;12.82;;;28.10;79.80;;;;;;5084056;28;20031;-46
2022/02/06 00:41:33;;;;;;;22.15;13.05;;;28.10;79.70;;;;;;5082852;28;20070;-46
2022/02/06 00:44:04;;;;;;;18.38;11.10;;;28.10;79.30;;;;;;5082569;28;20066;-53
2022/02/06 00:46:39;;;;;;;15.50;10.20;;;28.10;79.00;;;;;;5083402;28;20024;-51
2022/02/06 00:49:17;;;;;;;15.73;8.90;;;28.10;78.60;;;;;;5084339;28;20020;-52
2022/02/06 00:51:54;;;;;;;17.70;9.50;;;28.10;78.40;;;;;;5083705;28;20008;-56
2022/02/06 00:54:21;;;;;;;16.30;8.40;;;28.10;78.20;;;;;;5084162;28;20020;-53
2022/02/06 00:56:49;;;;;;;14.25;8.32;;;28.10;78.00;;;;;;5083444;28;20181;-48
2022/02/06 00:59:16;;;;;;;15.38;7.53;;;28.10;78.00;;;;;;5083251;28;20039;-51
2022/02/06 01:01:44;;;;;;;15.07;7.68;;;28.10;77.90;;;;;;5083465;28;20308;-47
2022/02/06 01:04:11;;;;;;;15.57;8.15;;;28.10;77.70;;;;;;5083786;28;20033;-51
2022/02/06 01:06:38;;;;;;;13.23;6.60;;;28.00;77.40;;;;;;5083280;28;20367;-51
2022/02/06 01:09:06;;;;;;;10.55;6.95;;;28.10;77.40;;;;;;5083873;28;20088;-56
2022/02/06 01:11:35;;;;;;;15.60;8.75;;;28.10;77.40;;;;;;5087011;28;20020;-52
2022/02/06 01:16:49;;;;;;;57.38;33.42;;;28.10;77.60;;;;;;5086916;28;20044;-49
2022/02/06 01:19:28;;;;;;;49.08;26.02;;;28.10;77.40;;;;;;5084944;28;20052;-49
2022/02/06 01:22:03;;;;;;;52.95;31.77;;;28.10;77.40;;;;;;5086962;28;20021;-48
2022/02/06 01:24:42;;;;;;;50.70;28.58;;;28.00;77.50;;;;;;5086559;28;20043;-47
2022/02/06 01:27:17;;;;;;;40.85;26.42;;;28.10;77.70;;;;;;5086053;28;20020;-50
2022/02/06 01:29:53;;;;;;;49.28;30.20;;;28.00;77.80;;;;;;5086697;28;20012;-48
2022/02/06 01:32:25;;;;;;;65.78;39.00;;;28.00;77.80;;;;;;5086712;28;20016;-54
2022/02/06 01:35:14;;;;;;;66.27;39.87;;;28.00;78.00;;;;;;5086562;28;20047;-53
2022/02/06 01:37:48;;;;;;;194.43;106.85;;;28.00;78.10;;;;;;5086604;28;20275;-52
2022/02/06 01:40:32;;;;;;;97.72;54.80;;;28.00;77.90;;;;;;5086366;28;20040;-50
2022/02/06 01:43:05;;;;;;;60.30;33.05;;;28.00;77.30;;;;;;5086507;28;20012;-47
2022/02/06 01:46:29;;;;;;;48.85;26.63;;;28.00;77.20;;;;;;5086330;28;20028;-49
2022/02/06 02:02:23;;;;;;;40.22;20.10;;;27.90;76.00;;;;;;5086263;28;20027;-47
2022/02/06 02:23:38;;;;;;;19.37;11.90;;;27.80;76.00;;;;;;5085923;28;19908;-50
2022/02/06 02:42:51;;;;;;;16.58;9.90;;;27.80;76.30;;;;;;5085815;28;20240;-51
2022/02/06 02:47:20;;;;;;;18.38;10.63;;;27.80;76.10;;;;;;5084825;28;20383;-50
2022/02/06 02:50:00;;;;;;;31.95;11.45;;;27.70;76.40;;;;;;5084649;28;20021;-51
2022/02/06 02:58:01;;;;;;;23.30;19.73;;;27.70;77.70;;;;;;5073829;28;20013;-50
2022/02/06 03:00:44;;;;;;;19.98;13.38;;;27.60;77.60;;;;;;5074467;28;20013;-46
2022/02/06 03:03:15;;;;;;;24.63;16.33;;;27.60;77.80;;;;;;5073044;28;20028;-49
2022/02/06 03:05:44;;;;;;;14.27;10.32;;;27.50;78.20;;;;;;5063750;28;20013;-50
2022/02/06 03:08:11;;;;;;;13.10;8.57;;;27.50;78.00;;;;;;5065368;28;20200;-48
2022/02/06 03:10:39;;;;;;;19.35;8.98;;;27.50;76.80;;;;;;5064849;28;20013;-48
2022/02/06 03:13:09;;;;;;;16.02;9.20;;;27.50;76.40;;;;;;5065074;28;20277;-47
2022/02/06 03:18:15;;;;;;;;;;;27.50;76.00;;;;;;5065290;28;20197;-48
2022/02/06 03:20:42;;;;;;;13.93;10.38;;;27.50;75.80;;;;;;5064958;28;19908;-47
2022/02/06 03:23:11;;;;;;;15.20;10.40;;;27.50;75.80;;;;;;5064889;28;20024;-50
2022/02/06 03:25:46;;;;;;;15.02;10.05;;;27.50;75.50;;;;;;5064402;28;20024;-49
2022/02/06 03:28:13;;;;;;;14.60;9.00;;;27.50;75.30;;;;;;5064845;28;20045;-48
2022/02/06 03:30:40;;;;;;;13.18;8.57;;;27.60;75.00;;;;;;5064598;28;20017;-47
2022/02/06 03:33:06;;;;;;;13.73;8.18;;;27.60;75.00;;;;;;5064202;28;20043;-49
2022/02/06 03:35:33;;;;;;;11.15;7.60;;;27.60;74.80;;;;;;5064398;28;20036;-53
2022/02/06 03:38:00;;;;;;;10.35;7.10;;;27.60;74.70;;;;;;5064739;28;20060;-52
2022/02/06 03:40:30;;;;;;;17.58;15.70;;;27.60;74.20;;;;;;5064624;28;20212;-54
2022/02/06 03:43:06;;;;;;;13.60;10.77;;;27.60;74.40;;;;;;5064350;28;20039;-47
2022/02/06 03:45:41;;;;;;;21.17;19.02;;;27.60;74.20;;;;;;5064176;28;20013;-47
2022/02/06 03:48:19;;;;;;;16.20;14.52;;;27.60;74.30;;;;;;5064202;28;20032;-49
2022/02/06 03:50:51;;;;;;;9.85;8.80;;;27.60;74.40;;;;;;5064144;28;20016;-52
2022/02/06 03:53:21;;;;;;;;;;;27.60;74.50;;;;;;5064812;28;20033;-51
2022/02/06 03:55:50;;;;;;;9.38;6.80;;;27.60;74.30;;;;;;5064147;28;19939;-48
2022/02/06 03:58:17;;;;;;;13.95;7.40;;;27.60;74.40;;;;;;5064256;28;20032;-46
2022/02/06 04:00:44;;;;;;;15.40;9.25;;;27.60;74.40;;;;;;5064223;28;20213;-51
2022/02/06 04:03:11;;;;;;;14.60;9.52;;;27.60;74.40;;;;;;5064167;28;20029;-50
2022/02/06 04:05:38;;;;;;;15.00;12.63;;;27.50;74.50;;;;;;5063709;28;20082;-48
2022/02/06 04:08:07;;;;;;;14.35;7.93;;;27.50;74.50;;;;;;5064045;28;20036;-48
2022/02/06 04:10:42;;;;;;;10.38;7.68;;;27.50;74.40;;;;;;5063922;28;20066;-50
2022/02/06 04:13:15;;;;;;;12.43;7.15;;;27.60;74.20;;;;;;5064142;28;20063;-46
2022/02/06 04:15:43;;;;;;;10.13;6.80;;;27.50;74.80;;;;;;5063840;28;20043;-47
2022/02/06 04:18:16;;;;;;;35.10;31.45;;;27.50;74.20;;;;;;5063852;28;20197;-49
2022/02/06 04:20:43;;;;;;;21.20;19.35;;;27.50;74.10;;;;;;5063840;28;20020;-47
2022/02/06 04:23:10;;;;;;;14.15;12.60;;;27.50;74.20;;;;;;5064025;28;20098;-49
2022/02/06 04:25:37;;;;;;;14.73;13.32;;;27.50;74.40;;;;;;5063530;28;20021;-50
2022/02/06 04:28:04;;;;;;;15.07;9.85;;;27.50;74.20;;;;;;5063926;28;20301;-47
2022/02/06 04:30:31;;;;;;;17.13;9.95;;;27.50;74.10;;;;;;5063710;28;20017;-47
2022/02/06 04:32:58;;;;;;;10.93;9.05;;;27.50;74.10;;;;;;5063470;28;20025;-48
2022/02/06 04:35:33;;;;;;;11.68;7.88;;;27.50;74.20;;;;;;5063540;28;20041;-50
2022/02/06 04:46:30;;;;;;;9.75;7.05;;;27.50;73.00;;;;;;5066771;28;20085;-47
2022/02/06 05:28:49;;;;;;;11.27;7.10;;;27.40;74.10;;;;;;5087040;28;20327;-46
2022/02/06 05:34:00;;;;;;;12.60;6.97;;;27.40;74.20;;;;;;5086709;28;20048;-48
2022/02/06 05:36:27;;;;;;;8.15;6.28;;;27.40;74.20;;;;;;5086763;28;20239;-45
2022/02/06 05:38:53;;;;;;;9.63;6.57;;;27.40;74.20;;;;;;5087093;28;20028;-51
2022/02/06 05:41:20;;;;;;;10.13;6.80;;;27.40;74.40;;;;;;5086573;28;20367;-52
2022/02/06 05:43:47;;;;;;;14.48;6.80;;;27.40;74.50;;;;;;5086912;28;20036;-52
2022/02/06 05:46:13;;;;;;;12.60;6.20;;;27.40;74.60;;;;;;5086765;28;20055;-46
2022/02/06 05:48:40;;;;;;;9.20;6.25;;;27.40;74.80;;;;;;5086846;28;20088;-46
2022/02/06 05:51:07;;;;;;;16.65;6.38;;;27.40;74.90;;;;;;5086518;28;20047;-49
2022/02/06 05:53:34;;;;;;;11.27;6.20;;;27.40;74.90;;;;;;5087002;28;20098;-51
2022/02/06 05:56:01;;;;;;;13.15;6.32;;;27.40;74.90;;;;;;5085913;28;20061;-54
2022/02/06 05:58:28;;;;;;;14.40;6.78;;;27.30;75.00;;;;;;5086832;28;20036;-47
2022/02/06 06:00:55;;;;;;;12.20;6.50;;;27.40;75.00;;;;;;5086369;28;20020;-54
2022/02/06 06:03:21;;;;;;;9.40;5.97;;;27.30;75.00;;;;;;5086331;28;20029;-51
2022/02/06 06:05:48;;;;;;;9.80;6.25;;;27.30;75.40;;;;;;5086219;28;20028;-52
2022/02/06 06:08:14;;;;;;;9.70;6.57;;;27.30;75.30;;;;;;5086548;28;20123;-56
2022/02/06 06:10:42;;;;;;;8.90;6.38;;;27.30;75.40;;;;;;5086118;28;20017;-54
2022/02/06 06:13:09;;;;;;;11.18;6.60;;;27.40;75.30;;;;;;5086288;28;20404;-51
2022/02/06 06:15:36;;;;;;;6.78;5.72;;;27.40;75.30;;;;;;5086061;28;20087;-48
2022/02/06 06:18:05;;;;;;;9.02;6.15;;;27.40;75.50;;;;;;5086085;28;20028;-52
2022/02/06 06:20:35;;;;;;;10.32;6.20;;;27.30;75.50;;;;;;5085919;28;20077;-49
2022/02/06 06:23:02;;;;;;;11.77;6.35;;;27.30;75.70;;;;;;5086023;28;20024;-54
2022/02/06 06:25:35;;;;;;;11.15;6.55;;;27.30;75.80;;;;;;5085610;28;20016;-53
2022/02/06 06:28:02;;;;;;;13.63;6.72;;;27.30;76.60;;;;;;5086140;28;20025;-50
2022/02/06 06:30:28;;;;;;;9.27;6.68;;;27.30;76.60;;;;;;5085777;28;20262;-51
2022/02/06 06:32:55;;;;;;;9.88;6.60;;;27.30;76.90;;;;;;5085737;28;20412;-53
2022/02/06 06:35:21;;;;;;;10.43;6.93;;;27.30;76.90;;;;;;5085601;28;20040;-51
2022/02/06 06:37:49;;;;;;;7.70;5.97;;;27.30;77.10;;;;;;5085681;28;20090;-46
2022/02/06 06:40:16;;;;;;;9.18;6.78;;;27.30;77.20;;;;;;5085447;28;20020;-49
2022/02/06 06:42:44;;;;;;;11.45;6.65;;;27.30;77.20;;;;;;5085749;28;20028;-45
2022/02/06 06:45:11;;;;;;;13.13;6.93;;;27.30;77.40;;;;;;5085431;28;20017;-51
2022/02/06 06:47:37;;;;;;;13.13;6.13;;;27.30;77.30;;;;;;5085343;28;20031;-54
2022/02/06 06:50:05;;;;;;;10.10;6.63;;;27.20;77.20;;;;;;5085337;28;20079;-50
2022/02/06 06:52:31;;;;;;;12.40;7.00;;;27.30;77.50;;;;;;5085298;28;20026;-49
2022/02/06 06:55:03;;;;;;;9.38;6.63;;;27.20;77.40;;;;;;5085150;28;20404;-48
2022/02/06 06:57:39;;;;;;;14.80;6.35;;;27.30;77.30;;;;;;5085259;28;20115;-48
2022/02/06 07:02:33;;;;;;;8.75;6.28;;;27.30;76.90;;;;;;5085146;28;20332;-48
2022/02/06 07:05:03;;;;;;;11.52;6.10;;;27.30;76.60;;;;;;5085047;28;20027;-53
2022/02/06 07:07:32;;;;;;;7.80;6.07;;;27.20;76.30;;;;;;5083010;28;20227;-53
2022/02/06 07:10:00;;;;;;;8.25;5.35;;;27.30;76.20;;;;;;5084964;28;20020;-46
2022/02/06 07:12:26;;;;;;;9.18;6.13;;;27.20;76.00;;;;;;5084946;28;20211;-47
2022/02/06 07:14:53;;;;;;;10.18;6.20;;;27.20;75.80;;;;;;5084870;28;20305;-50
2022/02/06 07:17:20;;;;;;;7.63;5.88;;;27.20;75.90;;;;;;5084810;28;20066;-53
2022/02/06 07:19:48;;;;;;;13.88;6.20;;;27.20;75.90;;;;;;5084771;28;20056;-50
2022/02/06 07:22:17;;;;;;;9.40;6.15;;;27.20;75.70;;;;;;5084668;28;20024;-52
2022/02/06 07:24:46;;;;;;;12.50;6.68;;;27.20;75.70;;;;;;5084572;28;20021;-46
2022/02/06 07:27:34;;;;;;;8.32;6.32;;;27.20;75.70;;;;;;5084658;28;20013;-44
2022/02/06 07:30:05;;;;;;;12.10;6.40;;;27.20;75.80;;;;;;5084574;28;20016;-48
2022/02/06 07:32:37;;;;;;;8.27;6.05;;;27.20;75.80;;;;;;5084572;28;20021;-46
2022/02/06 07:35:06;;;;;;;8.88;6.28;;;27.20;76.00;;;;;;5084218;28;20048;-57
2022/02/06 07:37:32;;;;;;;9.50;6.55;;;27.20;76.00;;;;;;5084728;28;20056;-52
2022/02/06 07:39:59;;;;;;;9.10;6.25;;;27.20;76.00;;;;;;5084417;28;20020;-51
2022/02/06 07:42:26;;;;;;;8.38;6.20;;;27.20;76.00;;;;;;5084203;28;20207;-46
2022/02/06 07:44:52;;;;;;;9.50;6.32;;;27.20;76.10;;;;;;5084280;28;20189;-47
2022/02/06 07:47:22;;;;;;;9.32;6.40;;;27.20;76.30;;;;;;5084254;28;20023;-47
2022/02/06 07:49:51;;;;;;;9.48;6.10;;;27.20;76.40;;;;;;5084158;28;20084;-50
2022/02/06 07:52:23;;;;;;;14.45;6.18;;;27.20;76.40;;;;;;5084380;28;20058;-52
2022/02/06 07:54:51;;;;;;;9.43;6.38;;;27.20;76.60;;;;;;5084215;28;20342;-48
2022/02/06 07:57:18;;;;;;;8.93;6.57;;;27.20;76.50;;;;;;5084355;28;20092;-51
2022/02/06 07:59:44;;;;;;;11.98;7.25;;;27.20;76.60;;;;;;5084149;28;20028;-47
2022/02/06 08:02:12;;;;;;;8.48;6.15;;;27.10;76.50;;;;;;5084129;28;20227;-50
2022/02/06 08:04:39;;;;;;;9.95;6.18;;;27.20;76.40;;;;;;5083868;28;20079;-51
2022/02/06 08:07:07;;;;;;;8.95;6.57;;;27.10;76.60;;;;;;5084061;28;20239;-49
2022/02/06 08:12:03;;;;;;;7.90;5.60;;;27.20;76.40;;;;;;5083924;28;20268;-49
2022/02/06 08:17:14;;;;;;;7.15;5.65;;;27.10;76.30;;;;;;5083722;28;20027;-54
2022/02/06 08:19:43;;;;;;;8.23;5.85;;;27.10;76.00;;;;;;5083735;28;20032;-56
2022/02/06 08:22:10;;;;;;;10.02;5.88;;;27.10;75.90;;;;;;5083798;28;20027;-45
2022/02/06 08:24:37;;;;;;;11.73;6.20;;;27.10;75.90;;;;;;5083596;28;20020;-47
2022/02/06 08:27:04;;;;;;;7.18;5.90;;;27.10;76.10;;;;;;5083877;28;20013;-45
2022/02/06 08:29:30;;;;;;;8.50;6.53;;;27.20;76.10;;;;;;5084339;28;20223;-46
2022/02/06 08:31:58;;;;;;;8.63;6.63;;;27.10;76.10;;;;;;5083705;28;20017;-45
2022/02/06 08:34:25;;;;;;;10.95;6.50;;;27.10;76.40;;;;;;5083814;28;20328;-52
2022/02/06 08:36:51;;;;;;;15.70;11.70;;;27.10;76.60;;;;;;5083875;28;20029;-50
2022/02/06 08:39:18;;;;;;;26.70;19.75;;;27.10;77.10;;;;;;5084058;28;20032;-50
2022/02/06 08:41:44;;;;;;;25.50;22.73;;;27.10;77.10;;;;;;5083731;28;20080;-46
2022/02/06 08:44:11;;;;;;;28.63;22.27;;;27.10;77.30;;;;;;5084047;28;20039;-50
2022/02/06 08:46:37;;;;;;;24.73;19.85;;;27.10;77.50;;;;;;5083527;28;20067;-47
2022/02/06 08:49:04;;;;;;;21.00;16.63;;;27.10;77.50;;;;;;5084072;28;20020;-50
2022/02/06 08:51:30;;;;;;;18.95;15.88;;;27.10;77.30;;;;;;5083659;28;20017;-51
2022/02/06 08:53:57;;;;;;;15.43;13.77;;;27.10;77.30;;;;;;5083839;28;20091;-53
2022/02/06 08:56:28;;;;;;;15.65;13.55;;;27.10;77.30;;;;;;5083580;28;20027;-48
2022/02/06 08:58:54;;;;;;;15.75;12.55;;;27.10;77.40;;;;;;5083869;28;20039;-49
2022/02/06 09:01:21;;;;;;;13.40;10.40;;;27.10;77.40;;;;;;5083416;28;20304;-48
2022/02/06 09:03:48;;;;;;;11.18;9.65;;;27.10;77.40;;;;;;5083750;28;20032;-55
2022/02/06 09:06:15;;;;;;;13.95;8.90;;;27.10;77.30;;;;;;5083474;28;20012;-49
2022/02/06 09:08:42;;;;;;;15.23;8.68;;;27.10;77.40;;;;;;5083633;28;20024;-49
2022/02/06 09:11:09;;;;;;;11.77;8.38;;;27.10;77.50;;;;;;5083535;28;20028;-47
2022/02/06 09:13:36;;;;;;;9.27;8.15;;;27.10;77.60;;;;;;5083614;28;20181;-49
2022/02/06 09:16:02;;;;;;;10.88;8.23;;;27.00;77.50;;;;;;5083303;28;20027;-46
2022/02/06 09:18:32;;;;;;;12.57;7.75;;;27.00;77.30;;;;;;5083657;28;20070;-48
2022/02/06 09:20:58;;;;;;;9.27;7.78;;;27.00;77.20;;;;;;5083396;28;20035;-50
2022/02/06 09:23:25;;;;;;;11.10;7.30;;;27.00;77.20;;;;;;5083278;28;20148;-48
2022/02/06 09:25:51;;;;;;;12.90;7.68;;;27.00;77.30;;;;;;5083551;28;20017;-53
2022/02/06 09:28:18;;;;;;;10.70;7.70;;;27.00;77.50;;;;;;5083647;28;20079;-47
2022/02/06 09:30:45;;;;;;;11.38;7.55;;;27.00;77.60;;;;;;5084070;28;20016;-51
2022/02/06 09:35:38;;;;;;;9.77;7.03;;;27.00;77.40;;;;;;5087131;28;20020;-46
2022/02/06 09:38:05;;;;;;;7.35;6.47;;;27.00;77.40;;;;;;5086855;28;20024;-46
2022/02/06 09:40:37;;;;;;;8.40;6.72;;;27.00;77.40;;;;;;5086688;28;20021;-48
2022/02/06 09:43:06;;;;;;;8.32;6.60;;;27.00;77.30;;;;;;5086784;28;20092;-53
2022/02/06 09:45:33;;;;;;;9.30;7.60;;;27.00;77.30;;;;;;5086502;28;20024;-44
2022/02/06 09:48:03;;;;;;;10.95;6.80;;;27.00;77.50;;;;;;5086696;28;20021;-47
2022/02/06 09:50:30;;;;;;;10.75;6.80;;;27.00;77.70;;;;;;5086578;28;20081;-48
2022/02/06 09:52:57;;;;;;;9.82;6.65;;;27.00;78.20;;;;;;5086513;28;20212;-46
2022/02/06 09:55:24;;;;;;;9.35;6.63;;;27.00;78.10;;;;;;5086462;28;20062;-48
2022/02/06 10:00:23;;;;;;;11.20;7.00;;;27.00;78.10;;;;;;5086234;28;20350;-50
2022/02/06 10:02:52;;;;;;;10.52;6.32;;;27.00;78.00;;;;;;5086465;28;20194;-49
2022/02/06 10:05:20;;;;;;;10.30;6.53;;;27.00;77.90;;;;;;5086246;28;20298;-52
2022/02/06 10:08:11;;;;;;;9.20;6.65;;;27.00;78.40;;;;;;5086192;28;20021;-49
2022/02/06 10:11:01;;;;;;;8.25;6.43;;;27.00;77.70;;;;;;5086466;28;20017;-49
2022/02/06 10:13:27;;;;;;;9.63;6.75;;;27.00;77.70;;;;;;5072314;28;20312;-56
2022/02/06 10:15:56;;;;;;;10.13;6.93;;;27.00;77.80;;;;;;5086113;28;20028;-50
2022/02/06 10:18:25;;;;;;;8.35;7.07;;;27.00;77.80;;;;;;5085966;28;20040;-49
2022/02/06 10:20:54;;;;;;;11.68;6.80;;;27.00;78.00;;;;;;5086022;28;20035;-49
2022/02/06 10:23:46;;;;;;;9.57;7.43;;;27.00;78.20;;;;;;5085817;28;20020;-49
2022/02/06 10:26:33;;;;;;;10.77;7.60;;;27.00;78.50;;;;;;5085903;28;20012;-55
2022/02/06 10:29:30;;;;;;;11.85;7.40;;;27.00;78.50;;;;;;5086185;28;20091;-47
2022/02/06 10:31:51;;;;;;;10.07;7.65;;;26.90;78.70;;;;;;5085069;28;20032;-47
2022/02/06 10:34:25;;;;;;;9.40;7.47;;;26.90;78.80;;;;;;5085815;28;20263;-49
2022/02/06 10:37:11;;;;;;;10.85;7.00;;;26.90;79.10;;;;;;5085725;28;20320;-48
2022/02/06 10:39:40;;;;;;;9.90;7.28;;;26.90;79.50;;;;;;5086107;28;20024;-46
2022/02/06 10:42:28;;;;;;;8.48;6.70;;;26.90;79.60;;;;;;5085568;28;20101;-47
2022/02/06 10:45:18;;;;;;;8.55;6.80;;;26.90;80.10;;;;;;5085528;28;20087;-47
2022/02/06 10:47:50;;;;;;;12.13;6.63;;;26.90;80.30;;;;;;5085389;28;20028;-47
2022/02/06 10:50:38;;;;;;;7.80;6.25;;;26.90;80.40;;;;;;5085421;28;20012;-50
2022/02/06 10:53:11;;;;;;;9.82;6.28;;;26.90;80.60;;;;;;5085834;28;20151;-49
2022/02/06 10:56:00;;;;;;;12.85;6.53;;;26.90;80.70;;;;;;5085232;28;20320;-51
2022/02/06 10:58:29;;;;;;;13.95;7.30;;;26.90;81.10;;;;;;5085405;28;20066;-44
2022/02/06 11:00:56;;;;;;;12.48;6.47;;;26.90;81.00;;;;;;5085146;28;20016;-45
2022/02/06 11:03:33;;;;;;;9.43;6.60;;;26.90;80.80;;;;;;5084187;28;20031;-46
2022/02/06 11:06:08;;;;;;;8.10;6.68;;;26.90;80.70;;;;;;5085038;28;20036;-53
2022/02/06 11:08:37;;;;;;;10.82;6.57;;;26.90;80.70;;;;;;5085130;28;20021;-50
2022/02/06 11:11:08;;;;;;;8.23;6.18;;;26.90;80.70;;;;;;5084885;28;20012;-48
2022/02/06 11:13:37;;;;;;;9.50;6.45;;;26.90;80.80;;;;;;5085195;28;20028;-49
2022/02/06 11:16:15;;;;;;;11.73;6.68;;;26.80;80.80;;;;;;5084812;28;20253;-49
2022/02/06 11:18:55;;;;;;;11.23;6.45;;;26.80;80.80;;;;;;5083780;28;20062;-51
2022/02/06 11:21:24;;;;;;;8.75;6.68;;;26.90;80.90;;;;;;5084657;28;20030;-45
2022/02/06 11:23:52;;;;;;;9.40;6.72;;;26.80;81.00;;;;;;5084983;28;20074;-48
2022/02/06 11:26:22;;;;;;;10.38;6.38;;;26.80;81.00;;;;;;5084713;28;20020;-51
2022/02/06 11:28:51;;;;;;;13.85;7.45;;;26.80;81.00;;;;;;5084881;28;20245;-51
2022/02/06 11:31:18;;;;;;;11.60;6.63;;;26.80;81.10;;;;;;5084568;28;20009;-47
2022/02/06 11:33:49;;;;;;;12.43;6.72;;;26.80;81.10;;;;;;5084704;28;20059;-50
2022/02/06 11:42:56;;;;;;;12.45;6.68;;;26.80;81.20;;;;;;5083637;28;20147;-49
2022/02/06 11:45:22;;;;;;;10.45;6.53;;;26.80;81.30;;;;;;5084256;28;20036;-46
2022/02/06 11:47:55;;;;;;;15.02;6.95;;;26.80;81.20;;;;;;5083183;28;20086;-51
2022/02/06 11:50:23;;;;;;;13.65;6.93;;;26.80;81.00;;;;;;5084460;28;20012;-46
2022/02/06 11:52:58;;;;;;;10.32;6.55;;;26.80;81.00;;;;;;5084128;28;20204;-48
2022/02/06 11:55:50;;;;;;;11.43;6.78;;;26.80;81.00;;;;;;5084126;28;20300;-44
2022/02/06 11:58:28;;;;;;;11.43;6.95;;;26.80;81.10;;;;;;5084205;28;20094;-45
2022/02/06 12:01:07;;;;;;;10.73;6.45;;;26.80;81.00;;;;;;5084190;28;20019;-53
2022/02/06 12:03:50;;;;;;;9.00;6.95;;;26.80;81.10;;;;;;5084137;28;20028;-48
2022/02/06 12:06:20;;;;;;;13.38;7.10;;;26.80;81.20;;;;;;5084034;28;20083;-46
2022/02/06 12:08:59;;;;;;;12.73;7.05;;;26.80;81.30;;;;;;5082816;28;20208;-50
2022/02/06 12:11:30;;;;;;;14.70;6.93;;;26.80;82.00;;;;;;5084214;28;20019;-50
2022/02/06 12:14:19;;;;;;;12.65;7.47;;;26.80;82.00;;;;;;5083723;28;20300;-50
2022/02/06 12:17:07;;;;;;;13.25;7.90;;;26.80;82.80;;;;;;5084047;28;20021;-50
2022/02/06 12:19:34;;;;;;;14.88;8.63;;;26.80;83.20;;;;;;5083845;28;20020;-48
2022/02/06 12:22:28;;;;;;;14.35;9.15;;;26.70;83.30;;;;;;5083868;28;20032;-48
2022/02/06 12:25:31;;;;;;;14.63;7.95;;;26.70;83.40;;;;;;5083915;28;20028;-49
2022/02/06 12:28:18;;;;;;;18.95;9.18;;;26.70;83.60;;;;;;5084063;28;20043;-47
2022/02/06 12:30:47;;;;;;;20.88;9.98;;;26.70;84.20;;;;;;5083743;28;20009;-50
2022/02/06 12:33:26;;;;;;;19.58;10.13;;;26.70;84.60;;;;;;5083886;28;20025;-53
2022/02/06 12:38:38;;;;;;;15.13;10.35;;;26.70;85.30;;;;;;5083992;28;20028;-47
2022/02/06 12:41:27;;;;;;;24.92;15.57;;;26.60;85.10;;;;;;5083853;28;20023;-47
2022/02/06 12:43:57;;;;;;;26.88;14.48;;;26.70;85.20;;;;;;5083905;28;20032;-55
2022/02/06 12:46:27;;;;;;;24.83;14.23;;;26.60;85.00;;;;;;5083675;28;20024;-53
2022/02/06 12:48:59;;;;;;;20.15;13.20;;;26.60;85.50;;;;;;5083589;28;20033;-57
2022/02/06 12:51:30;;;;;;;20.38;12.60;;;26.60;85.90;;;;;;5083609;28;20024;-54
2022/02/06 12:54:10;;;;;;;18.15;11.88;;;26.60;85.70;;;;;;5083850;28;20032;-52
2022/02/06 12:56:39;;;;;;;17.35;11.40;;;26.60;86.20;;;;;;5083573;28;20082;-47
2022/02/06 12:59:06;;;;;;;17.00;11.15;;;26.60;86.20;;;;;;5083922;28;20212;-53
2022/02/06 13:01:37;;;;;;;14.73;10.10;;;26.60;86.00;;;;;;5083460;28;20020;-49
2022/02/06 13:04:05;;;;;;;12.00;10.00;;;26.60;85.90;;;;;;5083886;28;20037;-52
2022/02/06 13:06:39;;;;;;;15.70;10.20;;;26.60;86.40;;;;;;5085555;28;20044;-46
2022/02/06 13:09:13;;;;;;;15.77;9.65;;;26.60;86.50;;;;;;5087811;28;20062;-45
2022/02/06 13:11:50;;;;;;;13.65;8.98;;;26.60;86.50;;;;;;5087382;28;20035;-54
2022/02/06 13:14:31;;;;;;;14.32;9.68;;;26.60;86.70;;;;;;5087702;28;20024;-53
2022/02/06 13:36:24;;;;;;;12.10;8.40;;;26.50;86.70;;;;;;5086737;28;20024;-47
2022/02/06 13:38:57;;;;;;;11.75;8.70;;;26.60;86.70;;;;;;5087134;28;20058;-51
2022/02/06 13:41:28;;;;;;;14.45;8.38;;;26.60;86.60;;;;;;5086634;28;20016;-50
2022/02/06 13:43:56;;;;;;;11.23;7.80;;;26.50;86.40;;;;;;5086638;28;20091;-44
2022/02/06 13:46:36;;;;;;;11.02;7.72;;;26.50;86.30;;;;;;5086615;28;20200;-47
2022/02/06 13:49:04;;;;;;;10.55;7.97;;;26.50;86.20;;;;;;5087115;28;20021;-55
2022/02/06 13:51:38;;;;;;;16.80;8.02;;;26.50;86.30;;;;;;5086828;28;20021;-48
2022/02/06 13:54:07;;;;;;;10.77;8.13;;;26.50;86.70;;;;;;5086852;28;20299;-49
2022/02/06 13:56:35;;;;;;;13.65;8.52;;;26.50;86.10;;;;;;5086479;28;20025;-59
2022/02/06 13:59:02;;;;;;;15.57;9.93;;;26.50;86.10;;;;;;5086651;28;20029;-53
2022/02/06 14:01:43;;;;;;;10.15;8.35;;;26.50;86.10;;;;;;5086331;28;20220;-47
2022/02/06 14:04:28;;;;;;;11.88;9.57;;;26.50;86.10;;;;;;5086152;28;20375;-49
2022/02/06 14:07:09;;;;;;;11.18;9.40;;;26.50;85.90;;;;;;5086408;28;20024;-46
2022/02/06 14:12:20;;;;;;;13.07;9.27;;;26.50;86.00;;;;;;5086054;28;20249;-53
2022/02/06 14:14:51;;;;;;;11.73;8.75;;;26.50;86.00;;;;;;5086113;28;20016;-53
2022/02/06 14:17:25;;;;;;;12.88;8.98;;;26.50;86.00;;;;;;5085599;28;20050;-48
2022/02/06 14:19:53;;;;;;;11.52;8.35;;;26.50;86.10;;;;;;5084831;28;20021;-53
2022/02/06 14:22:37;;;;;;;10.88;8.90;;;26.50;86.20;;;;;;5086037;28;20051;-45
2022/02/06 14:25:08;;;;;;;9.80;8.40;;;26.40;86.20;;;;;;5085763;28;20076;-45
2022/02/06 14:27:36;;;;;;;13.38;8.38;;;26.50;86.00;;;;;;5085722;28;20024;-48
2022/02/06 14:30:16;;;;;;;10.48;8.50;;;26.50;85.90;;;;;;5085931;28;20342;-59
2022/02/06 14:33:18;;;;;;;12.00;8.55;;;26.50;85.80;;;;;;5085533;28;20056;-55
2022/02/06 14:36:03;;;;;;;10.40;7.90;;;26.50;86.40;;;;;;5043521;28;20101;-47
2022/02/06 14:38:38;;;;;;;10.25;8.35;;;26.50;85.80;;;;;;5085025;28;20016;-46
2022/02/06 14:41:46;;;;;;;12.57;8.88;;;26.50;85.80;;;;;;5085546;28;20020;-46
2022/02/06 14:44:15;;;;;;;11.77;8.00;;;26.50;86.00;;;;;;5085799;28;20025;-49
2022/02/06 14:46:42;;;;;;;10.05;8.18;;;26.50;86.10;;;;;;5085394;28;20016;-48
2022/02/06 14:49:16;;;;;;;12.98;8.85;;;26.50;86.30;;;;;;5084378;28;20212;-49
2022/02/06 14:51:43;;;;;;;9.55;8.43;;;26.50;86.10;;;;;;5085213;28;20049;-57
2022/02/06 14:54:15;;;;;;;11.93;8.13;;;26.60;86.20;;;;;;5085630;28;20028;-48
2022/02/06 14:56:42;;;;;;;9.50;8.38;;;26.60;86.20;;;;;;5085355;28;20024;-48
2022/02/06 14:59:09;;;;;;;10.88;8.10;;;26.60;86.60;;;;;;5085470;28;20024;-46
2022/02/06 15:01:36;;;;;;;9.18;7.38;;;26.60;86.60;;;;;;5085118;28;20031;-52
2022/02/06 15:04:03;;;;;;;10.43;8.40;;;26.60;86.80;;;;;;5085460;28;20142;-46
2022/02/06 15:06:31;;;;;;;24.83;10.25;;;26.60;86.70;;;;;;5084743;28;20078;-59
2022/02/06 15:08:57;;;;;;;19.50;9.55;;;26.60;86.60;;;;;;5085362;28;20016;-45
2022/02/06 15:11:24;;;;;;;19.67;9.40;;;26.60;86.40;;;;;;5084908;28;20016;-46
2022/02/06 15:13:51;;;;;;;18.38;9.02;;;26.60;86.40;;;;;;5084971;28;20031;-53
2022/02/06 15:16:22;;;;;;;14.23;8.70;;;26.60;86.20;;;;;;5084838;28;20259;-45
2022/02/06 15:19:01;;;;;;;16.38;8.85;;;26.50;86.30;;;;;;5084759;28;20024;-51
2022/02/06 15:21:27;;;;;;;16.15;12.82;;;26.60;86.50;;;;;;5084641;28;20327;-51
2022/02/06 15:23:54;;;;;;;27.40;23.27;;;26.50;86.40;;;;;;5085142;28;20028;-48
2022/02/06 15:26:21;;;;;;;21.02;16.80;;;26.50;86.50;;;;;;5084055;28;20020;-45
2022/02/06 15:28:51;;;;;;;18.90;15.52;;;26.50;86.70;;;;;;5084045;28;20035;-43
2022/02/06 15:31:18;;;;;;;18.98;13.18;;;26.50;86.70;;;;;;5084581;28;20025;-47
2022/02/06 15:33:45;;;;;;;13.93;11.88;;;26.50;86.70;;;;;;5084613;28;20033;-46
2022/02/06 15:36:11;;;;;;;19.60;14.93;;;26.50;87.10;;;;;;5084414;28;20081;-49
2022/02/06 15:38:39;;;;;;;17.23;12.77;;;26.50;86.80;;;;;;5084618;28;20039;-48
2022/02/06 15:41:06;;;;;;;16.02;11.00;;;26.40;86.60;;;;;;5084399;28;20048;-53